createdAt,value
2023-01-27T00:00:39.254Z,9.55
2023-01-27T00:03:07.153Z,9.52
2023-01-27T00:05:34.217Z,9.55
2023-01-27T00:08:01.053Z,8.10
2023-01-27T00:10:27.984Z,8.98
2023-01-27T00:13:13.590Z,10.15
2023-01-27T00:15:40.583Z,10.87
2023-01-27T00:18:08.079Z,9.45
2023-01-27T00:20:53.343Z,8.98
2023-01-27T00:23:41.299Z,9.40
2023-01-27T00:26:11.566Z,9.77
2023-01-27T00:28:41.966Z,8.85
2023-01-27T00:31:29.383Z,9.05
2023-01-27T00:34:01.926Z,9.55
2023-01-27T00:36:29.925Z,10.20
2023-01-27T00:38:57.523Z,10.20
2023-01-27T00:41:24.449Z,9.02
2023-01-27T00:43:53.260Z,9.90
2023-01-27T00:46:22.497Z,9.25
2023-01-27T00:48:51.807Z,9.45
2023-01-27T00:51:19.024Z,10.77
2023-01-27T00:53:46.175Z,9.32
2023-01-27T00:56:13.398Z,9.75
2023-01-27T00:58:40.728Z,10.40
2023-01-27T01:01:10.443Z,9.55
2023-01-27T01:03:37.621Z,9.38
2023-01-27T01:06:08.057Z,10.10
2023-01-27T01:08:36.749Z,9.98
2023-01-27T01:11:05.235Z,10.70
2023-01-27T01:13:32.617Z,9.27
2023-01-27T01:16:12.007Z,9.57
2023-01-27T01:18:39.335Z,9.88
2023-01-27T01:21:06.957Z,9.52
2023-01-27T01:23:34.994Z,10.10
2023-01-27T01:26:01.773Z,10.10
2023-01-27T01:28:28.820Z,10.02
2023-01-27T01:30:55.764Z,9.23
2023-01-27T01:33:22.825Z,10.02
2023-01-27T01:35:49.637Z,10.55
2023-01-27T01:38:16.613Z,10.10
2023-01-27T01:40:44.511Z,9.48
2023-01-27T01:43:18.574Z,9.70
2023-01-27T01:45:49.157Z,8.63
2023-01-27T01:48:19.045Z,9.73
2023-01-27T01:50:52.400Z,10.70
2023-01-27T01:53:21.237Z,9.80
2023-01-27T01:55:49.381Z,9.93
2023-01-27T01:58:18.148Z,10.27
2023-01-27T02:00:44.949Z,8.82
2023-01-27T02:03:11.841Z,8.73
2023-01-27T02:05:43.675Z,9.20
2023-01-27T02:08:30.727Z,9.23
2023-01-27T02:10:58.584Z,9.40
2023-01-27T02:13:25.351Z,9.85
2023-01-27T02:15:54.151Z,9.88
2023-01-27T02:18:21.652Z,9.57
2023-01-27T02:20:54.326Z,10.77
2023-01-27T02:23:46.626Z,8.73
2023-01-27T02:26:17.861Z,9.35
2023-01-27T02:28:45.280Z,10.10
2023-01-27T02:31:12.524Z,10.57
2023-01-27T02:33:39.428Z,8.95
2023-01-27T02:36:17.762Z,9.30
2023-01-27T02:38:53.760Z,8.52
2023-01-27T02:41:36.897Z,9.00
2023-01-27T02:44:04.217Z,8.13
2023-01-27T02:46:32.795Z,8.15
2023-01-27T02:49:00.443Z,8.73
2023-01-27T02:51:27.620Z,9.38
2023-01-27T02:53:54.444Z,8.27
2023-01-27T02:56:22.745Z,10.05
2023-01-27T02:58:49.592Z,10.02
2023-01-27T03:01:22.539Z,8.95
2023-01-27T03:03:51.225Z,8.52
2023-01-27T03:06:20.088Z,7.65
2023-01-27T03:08:46.938Z,7.95
2023-01-27T03:11:35.631Z,8.43
2023-01-27T03:14:03.601Z,7.97
2023-01-27T03:16:49.224Z,8.45
2023-01-27T03:19:16.935Z,7.30
2023-01-27T03:21:45.226Z,7.78
2023-01-27T03:24:12.460Z,7.93
2023-01-27T03:26:39.470Z,7.53
2023-01-27T03:29:27.231Z,8.35
2023-01-27T03:31:54.071Z,6.85
2023-01-27T03:34:21.491Z,7.60
2023-01-27T03:37:09.716Z,8.40
2023-01-27T03:39:55.094Z,8.65
2023-01-27T03:45:27.781Z,6.28
2023-01-27T03:47:54.550Z,7.45
2023-01-27T03:50:31.242Z,7.13
2023-01-27T03:53:04.816Z,7.63
2023-01-27T03:55:32.852Z,7.25
2023-01-27T03:58:14.712Z,7.25
2023-01-27T04:00:41.684Z,7.15
2023-01-27T04:03:27.341Z,6.93
2023-01-27T04:06:12.551Z,7.33
2023-01-27T04:08:42.258Z,7.45
2023-01-27T04:11:27.986Z,7.22
2023-01-27T04:18:56.857Z,5.53
2023-01-27T04:21:25.327Z,7.13
2023-01-27T04:23:52.889Z,6.85
2023-01-27T04:26:20.249Z,7.57
2023-01-27T04:28:47.680Z,7.07
2023-01-27T04:31:18.446Z,6.00
2023-01-27T04:33:45.861Z,7.40
2023-01-27T04:36:13.924Z,7.43
2023-01-27T04:38:41.320Z,6.70
2023-01-27T04:41:09.069Z,7.35
2023-01-27T04:43:36.011Z,6.75
2023-01-27T04:46:03.111Z,7.82
2023-01-27T04:48:29.941Z,7.10
2023-01-27T04:50:56.743Z,6.90
2023-01-27T04:53:23.613Z,7.32
2023-01-27T04:55:50.403Z,7.32
2023-01-27T04:58:18.156Z,6.93
2023-01-27T05:00:45.422Z,6.85
2023-01-27T05:03:12.580Z,6.82
2023-01-27T05:05:39.631Z,7.75
2023-01-27T05:08:07.908Z,7.35
2023-01-27T05:10:34.833Z,6.75
2023-01-27T05:13:02.245Z,7.32
2023-01-27T05:15:30.402Z,7.07
2023-01-27T05:17:57.200Z,7.57
2023-01-27T05:20:23.978Z,7.75
2023-01-27T05:22:52.108Z,7.38
2023-01-27T05:25:18.890Z,7.05
2023-01-27T05:27:45.895Z,7.28
2023-01-27T05:30:13.179Z,6.20
2023-01-27T05:32:40.027Z,6.53
2023-01-27T05:35:07.414Z,7.00
2023-01-27T05:37:34.499Z,7.07
2023-01-27T05:40:01.750Z,6.63
2023-01-27T05:42:28.784Z,7.03
2023-01-27T05:44:55.636Z,7.40
2023-01-27T05:47:22.426Z,6.72
2023-01-27T05:49:49.286Z,6.78
2023-01-27T05:52:16.191Z,6.45
2023-01-27T05:54:43.104Z,6.75
2023-01-27T05:57:09.955Z,6.10
2023-01-27T05:59:36.735Z,5.43
2023-01-27T06:02:03.662Z,5.13
2023-01-27T06:04:30.697Z,6.03
2023-01-27T06:06:57.853Z,5.57
2023-01-27T06:09:24.651Z,5.13
2023-01-27T06:11:51.418Z,6.25
2023-01-27T06:14:19.510Z,4.88
2023-01-27T06:16:47.343Z,5.93
2023-01-27T06:19:14.339Z,5.45
2023-01-27T06:21:41.151Z,5.50
2023-01-27T06:24:08.113Z,5.00
2023-01-27T06:26:35.040Z,5.45
2023-01-27T06:29:02.162Z,5.05
2023-01-27T06:31:29.115Z,5.55
2023-01-27T06:33:56.016Z,4.88
2023-01-27T06:36:23.256Z,5.15
2023-01-27T06:38:50.671Z,5.45
2023-01-27T06:41:18.269Z,5.03
2023-01-27T06:43:45.068Z,4.60
2023-01-27T06:46:12.276Z,5.47
2023-01-27T06:48:39.145Z,4.95
2023-01-27T06:51:06.626Z,4.70
2023-01-27T06:53:34.831Z,4.97
2023-01-27T06:56:02.029Z,4.78
2023-01-27T06:58:29.221Z,4.45
2023-01-27T07:00:56.981Z,4.60
2023-01-27T07:03:24.258Z,4.38
2023-01-27T07:05:51.127Z,4.95
2023-01-27T07:08:19.034Z,4.55
2023-01-27T07:10:46.208Z,4.72
2023-01-27T07:13:14.329Z,5.28
2023-01-27T07:15:41.327Z,4.10
2023-01-27T07:18:09.638Z,5.25
2023-01-27T07:20:36.456Z,5.03
2023-01-27T07:23:04.932Z,4.65
2023-01-27T07:25:33.810Z,4.88
2023-01-27T07:28:02.030Z,4.85
2023-01-27T07:30:29.618Z,5.07
2023-01-27T07:33:02.329Z,4.78
2023-01-27T07:35:29.090Z,5.53
2023-01-27T07:37:57.725Z,4.82
2023-01-27T07:40:24.552Z,5.90
2023-01-27T07:42:51.504Z,5.85
2023-01-27T07:45:20.159Z,4.80
2023-01-27T07:47:46.941Z,5.55
2023-01-27T07:50:14.119Z,4.43
2023-01-27T07:52:41.146Z,5.55
2023-01-27T07:55:08.405Z,5.97
2023-01-27T07:57:35.410Z,5.82
2023-01-27T08:00:02.522Z,5.40
2023-01-27T08:02:39.082Z,4.72
2023-01-27T08:05:06.053Z,5.78
2023-01-27T08:07:32.936Z,5.53
2023-01-27T08:09:59.796Z,5.07
2023-01-27T08:12:26.611Z,6.20
2023-01-27T08:14:53.678Z,5.22
2023-01-27T08:17:20.446Z,5.13
2023-01-27T08:19:48.521Z,5.18
2023-01-27T08:22:19.803Z,5.05
2023-01-27T08:24:47.485Z,5.43
2023-01-27T08:27:14.615Z,5.40
2023-01-27T08:29:41.529Z,5.05
2023-01-27T08:32:08.954Z,5.75
2023-01-27T08:34:35.716Z,6.15
2023-01-27T08:37:03.309Z,5.43
2023-01-27T08:39:30.260Z,5.35
2023-01-27T08:41:57.128Z,4.97
2023-01-27T08:44:24.353Z,5.85
2023-01-27T08:46:51.126Z,5.60
2023-01-27T08:49:17.943Z,4.88
2023-01-27T08:51:44.708Z,4.75
2023-01-27T08:54:11.621Z,5.15
2023-01-27T08:56:38.440Z,4.95
2023-01-27T08:59:05.245Z,5.38
2023-01-27T09:01:32.490Z,6.13
2023-01-27T09:03:59.534Z,5.70
2023-01-27T09:06:26.486Z,5.22
2023-01-27T09:09:12.462Z,5.78
2023-01-27T09:11:44.161Z,5.63
2023-01-27T09:14:12.016Z,5.32
2023-01-27T09:16:38.958Z,5.70
2023-01-27T09:19:06.102Z,5.30
2023-01-27T09:21:33.000Z,5.38
2023-01-27T09:23:59.840Z,4.45
2023-01-27T09:26:26.740Z,4.72
2023-01-27T09:28:53.534Z,5.20
2023-01-27T09:31:20.490Z,4.75
2023-01-27T09:33:47.386Z,5.10
2023-01-27T09:36:18.927Z,5.35
2023-01-27T09:38:54.443Z,4.45
2023-01-27T09:41:40.969Z,3.50
2023-01-27T09:46:54.217Z,4.60
2023-01-27T09:50:00.193Z,4.82
2023-01-27T09:52:51.642Z,4.65
2023-01-27T09:55:47.016Z,4.60
2023-01-27T09:58:50.095Z,4.10
2023-01-27T10:01:45.861Z,4.05
2023-01-27T10:04:46.829Z,4.45
2023-01-27T10:07:25.851Z,4.05
2023-01-27T10:10:19.988Z,4.40
2023-01-27T10:13:05.436Z,4.20
2023-01-27T10:15:58.269Z,4.30
2023-01-27T10:18:55.508Z,3.78
2023-01-27T10:21:35.326Z,4.40
2023-01-27T10:24:08.593Z,4.18
2023-01-27T10:26:37.790Z,4.60
2023-01-27T10:29:46.499Z,4.32
2023-01-27T10:32:46.639Z,4.47
2023-01-27T10:35:44.467Z,3.92
2023-01-27T10:38:32.664Z,3.85
2023-01-27T10:41:07.532Z,3.38
2023-01-27T10:44:01.804Z,4.05
2023-01-27T10:47:00.430Z,3.38
2023-01-27T10:49:40.733Z,3.70
2023-01-27T10:52:10.474Z,3.53
2023-01-27T10:54:59.429Z,3.60
2023-01-27T10:57:39.250Z,3.38
2023-01-27T11:00:54.850Z,3.15
2023-01-27T11:03:10.535Z,3.55
2023-01-27T11:05:45.929Z,2.75
2023-01-27T11:08:17.589Z,2.90
2023-01-27T11:11:07.143Z,3.00
2023-01-27T11:13:34.365Z,2.83
2023-01-27T11:16:02.023Z,2.67
2023-01-27T11:18:31.920Z,3.60
2023-01-27T11:21:05.797Z,3.13
2023-01-27T11:23:42.797Z,2.83
2023-01-27T11:26:18.436Z,2.88
2023-01-27T11:28:51.325Z,2.80
2023-01-27T11:31:38.077Z,2.30
2023-01-27T11:34:20.051Z,2.28
2023-01-27T11:36:49.304Z,2.00
2023-01-27T11:39:18.161Z,2.22
2023-01-27T11:41:53.722Z,2.10
2023-01-27T11:44:27.988Z,1.95
2023-01-27T11:46:55.818Z,2.08
2023-01-27T11:49:27.923Z,2.10
2023-01-27T11:52:12.210Z,1.60
2023-01-27T11:54:52.641Z,1.60
2023-01-27T11:57:24.920Z,1.60
2023-01-27T12:00:01.552Z,1.23
2023-01-27T12:02:44.713Z,1.30
2023-01-27T12:05:17.726Z,1.38
2023-01-27T12:08:02.396Z,1.45
2023-01-27T12:10:39.309Z,1.40
2023-01-27T12:13:25.886Z,1.50
2023-01-27T12:18:26.591Z,1.23
2023-01-27T12:21:01.473Z,1.85
2023-01-27T12:23:51.233Z,1.20
2023-01-27T12:26:31.004Z,1.15
2023-01-27T12:29:01.194Z,1.40
2023-01-27T12:31:32.743Z,1.55
2023-01-27T12:34:03.108Z,2.03
2023-01-27T12:36:38.713Z,2.30
2023-01-27T12:39:07.670Z,2.33
2023-01-27T12:41:37.365Z,1.83
2023-01-27T12:44:17.477Z,1.67
2023-01-27T12:47:02.506Z,1.63
2023-01-27T12:49:35.120Z,1.73
2023-01-27T12:52:04.905Z,1.80
2023-01-27T12:54:33.049Z,1.67
2023-01-27T12:57:05.581Z,1.48
2023-01-27T12:59:34.252Z,1.40
2023-01-27T13:02:15.369Z,1.58
2023-01-27T13:04:43.300Z,1.60
2023-01-27T13:07:16.064Z,1.63
2023-01-27T13:10:14.253Z,1.30
2023-01-27T13:13:01.507Z,1.42
2023-01-27T13:15:31.150Z,1.60
2023-01-27T13:17:59.776Z,1.30
2023-01-27T13:20:40.735Z,1.77
2023-01-27T13:23:11.161Z,2.00
2023-01-27T13:26:03.307Z,1.50
2023-01-27T13:28:55.858Z,1.40
2023-01-27T13:31:41.712Z,1.50
2023-01-27T13:34:19.150Z,1.40
2023-01-27T13:37:19.872Z,1.23
2023-01-27T13:40:02.836Z,1.25
2023-01-27T13:42:55.459Z,1.20
2023-01-27T13:45:28.220Z,1.30
2023-01-27T13:48:04.327Z,1.30
2023-01-27T13:53:01.501Z,1.40
2023-01-27T13:55:37.050Z,1.48
2023-01-27T13:58:26.393Z,1.30
2023-01-27T14:01:15.807Z,1.15
2023-01-27T14:04:23.946Z,1.10
2023-01-27T14:06:55.772Z,1.10
2023-01-27T14:09:40.704Z,1.17
2023-01-27T14:12:19.704Z,1.27
2023-01-27T14:14:58.271Z,1.38
2023-01-27T14:17:38.256Z,1.08
2023-01-27T14:20:18.371Z,1.25
2023-01-27T14:23:16.906Z,1.17
2023-01-27T14:25:47.911Z,1.00
2023-01-27T14:28:51.656Z,1.05
2023-01-27T14:31:29.757Z,1.23
2023-01-27T14:34:05.460Z,1.23
2023-01-27T14:36:45.645Z,1.27
2023-01-27T14:39:53.911Z,1.48
2023-01-27T14:42:34.985Z,1.35
2023-01-27T14:45:19.490Z,1.27
2023-01-27T14:48:03.083Z,1.42
2023-01-27T14:51:01.467Z,1.20
2023-01-27T14:53:34.404Z,1.00
2023-01-27T14:56:34.475Z,1.02
2023-01-27T14:59:34.628Z,1.50
2023-01-27T15:02:25.133Z,1.20
2023-01-27T15:05:35.567Z,1.30
2023-01-27T15:08:24.666Z,1.10
2023-01-27T15:11:03.240Z,1.20
2023-01-27T15:13:59.247Z,1.02
2023-01-27T15:16:44.597Z,1.20
2023-01-27T15:19:33.554Z,1.10
2023-01-27T15:22:33.098Z,1.23
2023-01-27T15:25:18.330Z,1.30
2023-01-27T15:27:47.150Z,1.35
2023-01-27T15:30:29.070Z,1.25
2023-01-27T15:32:56.611Z,1.55
2023-01-27T15:35:30.186Z,1.42
2023-01-27T15:38:09.813Z,1.10
2023-01-27T15:41:00.181Z,1.27
2023-01-27T15:43:31.301Z,1.55
2023-01-27T15:46:30.288Z,1.30
2023-01-27T15:49:00.669Z,1.60
2023-01-27T15:51:29.851Z,1.15
2023-01-27T15:54:00.413Z,1.20
2023-01-27T15:56:41.683Z,1.35
2023-01-27T15:59:16.619Z,1.08
2023-01-27T16:01:43.445Z,1.23
2023-01-27T16:04:10.192Z,1.13
2023-01-27T16:06:46.921Z,1.30
2023-01-27T16:09:35.995Z,1.00
2023-01-27T16:12:23.256Z,0.90
2023-01-27T16:15:11.381Z,1.25
2023-01-27T16:18:07.745Z,1.10
2023-01-27T16:20:49.334Z,1.30
2023-01-27T16:23:29.934Z,1.30
2023-01-27T16:26:13.223Z,1.38
2023-01-27T16:28:46.009Z,1.00
2023-01-27T16:31:18.788Z,1.10
2023-01-27T16:33:48.369Z,1.10
2023-01-27T16:36:27.027Z,1.40
2023-01-27T16:38:55.600Z,1.23
2023-01-27T16:41:29.973Z,1.40
2023-01-27T16:44:18.856Z,1.48
2023-01-27T16:46:49.578Z,1.25
2023-01-27T16:49:23.477Z,1.00
2023-01-27T16:51:59.867Z,1.20
2023-01-27T16:54:35.002Z,1.63
2023-01-27T16:57:04.591Z,1.17
2023-01-27T16:59:37.643Z,1.25
2023-01-27T17:02:18.940Z,1.10
2023-01-27T17:04:59.112Z,1.42
2023-01-27T17:07:26.128Z,1.20
2023-01-27T17:10:05.667Z,1.52
2023-01-27T17:12:34.139Z,1.40
2023-01-27T17:15:15.563Z,1.60
2023-01-27T17:17:43.237Z,1.50
2023-01-27T17:20:22.197Z,1.25
2023-01-27T17:22:54.147Z,1.27
2023-01-27T17:25:23.897Z,1.20
2023-01-27T17:27:51.192Z,1.63
2023-01-27T17:30:24.692Z,1.40
2023-01-27T17:32:57.468Z,1.60
2023-01-27T17:35:25.873Z,1.60
2023-01-27T17:38:03.838Z,1.58
2023-01-27T17:40:37.293Z,1.77
2023-01-27T17:43:24.733Z,1.17
2023-01-27T17:46:06.174Z,1.60
2023-01-27T17:48:35.618Z,1.60
2023-01-27T17:51:02.550Z,3.42
2023-01-27T17:53:29.597Z,2.67
2023-01-27T17:55:56.925Z,1.73
2023-01-27T17:58:27.074Z,1.60
2023-01-27T18:00:55.916Z,1.55
2023-01-27T18:03:29.716Z,1.65
2023-01-27T18:05:57.006Z,1.60
2023-01-27T18:08:23.904Z,1.60
2023-01-27T18:10:51.743Z,1.60
2023-01-27T18:13:18.479Z,1.52
2023-01-27T18:15:59.217Z,2.00
2023-01-27T18:18:28.872Z,1.73
2023-01-27T18:21:04.486Z,2.20
2023-01-27T18:23:47.886Z,2.72
2023-01-27T18:26:37.922Z,2.25
2023-01-27T18:29:22.815Z,2.78
2023-01-27T18:31:59.165Z,9.30
2023-01-27T18:34:32.824Z,8.23
2023-01-27T18:37:04.308Z,4.88
2023-01-27T18:39:41.450Z,2.97
2023-01-27T18:42:21.013Z,2.40
2023-01-27T18:44:52.784Z,2.70
2023-01-27T18:47:20.085Z,2.13
2023-01-27T18:49:51.764Z,2.00
2023-01-27T18:52:18.818Z,2.05
2023-01-27T18:54:45.716Z,2.67
2023-01-27T18:57:12.582Z,3.50
2023-01-27T18:59:39.982Z,5.68
2023-01-27T19:02:14.390Z,4.32
2023-01-27T19:04:41.305Z,2.35
2023-01-27T19:07:16.227Z,2.50
2023-01-27T19:09:45.052Z,3.22
2023-01-27T19:12:12.368Z,2.50
2023-01-27T19:14:41.910Z,2.83
2023-01-27T19:17:23.142Z,1.85
2023-01-27T19:19:50.096Z,1.80
2023-01-27T19:22:18.324Z,1.30
2023-01-27T19:24:45.977Z,1.40
2023-01-27T19:27:15.806Z,1.30
2023-01-27T19:29:42.957Z,1.63
2023-01-27T19:32:15.911Z,1.65
2023-01-27T19:34:42.983Z,1.50
2023-01-27T19:37:19.454Z,1.92
2023-01-27T19:39:47.049Z,1.70
2023-01-27T19:42:15.484Z,1.45
2023-01-27T19:44:43.055Z,1.80
2023-01-27T19:47:14.091Z,1.48
2023-01-27T19:49:41.545Z,1.70
2023-01-27T19:52:10.119Z,1.73
2023-01-27T19:54:37.123Z,1.88
2023-01-27T19:57:05.063Z,1.65
2023-01-27T19:59:32.099Z,1.95
2023-01-27T20:01:59.046Z,2.30
2023-01-27T20:04:26.646Z,1.90
2023-01-27T20:06:53.910Z,1.73
2023-01-27T20:09:20.922Z,1.60
2023-01-27T20:11:47.907Z,2.30
2023-01-27T20:14:19.206Z,2.00
2023-01-27T20:16:47.110Z,1.92
2023-01-27T20:19:15.293Z,2.25
2023-01-27T20:21:43.553Z,2.13
2023-01-27T20:24:17.890Z,1.98
2023-01-27T20:26:45.146Z,1.80
2023-01-27T20:29:12.139Z,2.33
2023-01-27T20:31:39.568Z,2.20
2023-01-27T20:34:07.084Z,2.17
2023-01-27T20:36:34.103Z,2.10
2023-01-27T20:39:00.877Z,1.98
2023-01-27T20:41:27.757Z,2.35
2023-01-27T20:43:56.742Z,2.33
2023-01-27T20:46:24.723Z,2.50
2023-01-27T20:48:51.976Z,2.20
2023-01-27T20:51:19.296Z,2.15
2023-01-27T20:53:46.291Z,1.90
2023-01-27T20:56:16.402Z,2.55
2023-01-27T20:58:43.976Z,2.35
2023-01-27T21:01:19.439Z,2.10
2023-01-27T21:03:46.863Z,2.33
2023-01-27T21:06:15.870Z,2.28
2023-01-27T21:08:43.720Z,2.38
2023-01-27T21:11:13.245Z,2.42
2023-01-27T21:13:40.278Z,2.13
2023-01-27T21:16:07.991Z,3.20
2023-01-27T21:18:38.402Z,2.28
2023-01-27T21:21:05.965Z,2.33
2023-01-27T21:23:34.267Z,2.25
2023-01-27T21:26:09.580Z,2.25
2023-01-27T21:28:36.503Z,2.03
2023-01-27T21:31:11.536Z,2.50
2023-01-27T21:33:39.607Z,2.67
2023-01-27T21:36:10.483Z,2.20
2023-01-27T21:38:39.293Z,1.90
2023-01-27T21:41:11.779Z,2.60
2023-01-27T21:43:57.994Z,2.65
2023-01-27T21:46:25.619Z,2.03
2023-01-27T21:48:53.220Z,1.98
2023-01-27T21:51:20.723Z,2.03
2023-01-27T21:53:48.587Z,1.80
2023-01-27T21:56:16.358Z,2.17
2023-01-27T21:58:43.757Z,2.08
2023-01-27T22:01:11.864Z,1.92
2023-01-27T22:03:39.857Z,1.85
2023-01-27T22:06:08.122Z,2.22
2023-01-27T22:08:36.458Z,2.15
2023-01-27T22:11:05.552Z,2.05
2023-01-27T22:13:34.013Z,2.17
2023-01-27T22:16:02.354Z,1.80
2023-01-27T22:18:30.730Z,2.13
2023-01-27T22:21:01.931Z,2.00
2023-01-27T22:23:29.504Z,2.20
2023-01-27T22:25:57.301Z,2.17
2023-01-27T22:28:26.801Z,2.10
2023-01-27T22:30:55.156Z,2.15
2023-01-27T22:33:22.529Z,2.20
2023-01-27T22:35:58.586Z,1.88
2023-01-27T22:38:26.275Z,2.20
2023-01-27T22:40:58.668Z,2.45
2023-01-27T22:43:26.357Z,2.10
2023-01-27T22:45:53.899Z,2.22
2023-01-27T22:48:21.637Z,2.95
2023-01-27T22:50:49.145Z,2.20
2023-01-27T22:53:16.667Z,2.22
2023-01-27T22:55:44.150Z,2.63
2023-01-27T22:58:11.878Z,2.40
2023-01-27T23:00:39.377Z,2.63
2023-01-27T23:03:06.722Z,2.17
2023-01-27T23:05:34.505Z,2.53
2023-01-27T23:08:02.028Z,1.88
2023-01-27T23:10:30.197Z,2.20
2023-01-27T23:12:57.940Z,1.70
2023-01-27T23:15:25.353Z,1.95
2023-01-27T23:17:53.039Z,1.77
2023-01-27T23:20:20.783Z,1.70
2023-01-27T23:22:48.448Z,2.05
2023-01-27T23:25:16.201Z,1.70
2023-01-27T23:27:44.064Z,1.92
2023-01-27T23:30:12.102Z,1.95
2023-01-27T23:32:39.865Z,1.95
2023-01-27T23:35:07.829Z,2.20
2023-01-27T23:37:35.543Z,2.00
2023-01-27T23:40:03.256Z,1.85
2023-01-27T23:42:31.006Z,2.17
2023-01-27T23:44:58.729Z,2.20
2023-01-27T23:47:26.315Z,1.90
2023-01-27T23:49:54.373Z,2.08
2023-01-27T23:52:21.717Z,1.98
2023-01-27T23:54:48.808Z,2.25
2023-01-27T23:57:15.608Z,2.13
2023-01-27T23:59:42.474Z,2.25
